Current Weather

Porter County Rgnl

Valparaiso, Indiana (KVPZ)

Report from: Friday, February 3, 2023 10:56 PM CST
Current time: Friday, February 3, 2023 11:34 PM CST

Nearby weather
Weather history
Weather forecast

Temperature-12.2°C (10.0°F)
Wind chill-17.6°C (0.4°F)
Dew point-15.6°C (3.9°F)
Winds 5 kts (2.6 m/s, 5.8 mph) East-Southeast (120°)
Visibility10 mi. (16.1 km)
Clouds Sky clear
Altimeter30.49 in.Hg (1033 mB)
Relative humidity76 %
Density altitude-4,046 ft. (-1,233 m)
Sea-level pressure103.4 kPa (1034 mB, 30.54 in.Hg)
Remarks Fully automated report
Automated weather observing station with precipitation discriminator
Flight conditions Visual Meteorological Conditions
Raw dataKVPZ 040456Z AUTO 12005KT 10SM CLR M12/M16 A3049 RMK AO2 SLP342 T11221156
An unhandled exception has occurred. See browser dev tools for details. Reload 🗙